Terminal Aerodrome Forecast
Issued by NWS

Home | Current Version | Previous Version | Text Only | Print | Product List | Glossary On
Versions: 1 2 3 4 5 6 7 8 9 10 11 12 13
000
FTUS44 KCRP 190531
TAFLRD
TAF
KLRD 190531Z 1906/2006 08010KT P6SM BKN050
     FM190700 06009KT P6SM VCSH BKN018 OVC040
     FM191000 05012KT P6SM VCSH BKN012 OVC025
     FM191500 04014G20KT P6SM BKN025 OVC050
     FM192100 09008KT P6SM BKN060=

USA.gov is the U.S. government's official web portal to all federal, state and local government web resources and services.